createdAt,value
2023-02-26T00:01:44.089Z,-1.93
2023-02-26T00:04:11.260Z,-1.92
2023-02-26T00:06:52.576Z,-1.90
2023-02-26T00:09:22.601Z,-1.87
2023-02-26T00:11:50.346Z,-1.85
2023-02-26T00:14:18.119Z,-1.84
2023-02-26T00:17:08.091Z,-1.83
2023-02-26T00:19:35.534Z,-1.82
2023-02-26T00:22:03.277Z,-1.78
2023-02-26T00:24:30.322Z,-1.74
2023-02-26T00:26:57.311Z,-1.73
2023-02-26T00:29:24.638Z,-1.69
2023-02-26T00:31:52.547Z,-1.64
2023-02-26T00:34:20.599Z,-1.52
2023-02-26T00:37:46.363Z,-1.37
2023-02-26T00:40:26.328Z,-1.19
2023-02-26T00:42:53.836Z,-1.06
2023-02-26T00:45:21.758Z,-0.91
2023-02-26T00:48:31.832Z,-0.82
2023-02-26T00:51:47.117Z,-0.71
2023-02-26T00:54:29.984Z,-0.64
2023-02-26T00:56:59.489Z,-0.62
2023-02-26T00:59:26.760Z,-0.59
2023-02-26T01:01:54.845Z,-0.54
2023-02-26T01:04:24.675Z,-0.52
2023-02-26T01:06:56.798Z,-0.50
2023-02-26T01:09:31.956Z,-0.48
2023-02-26T01:12:04.356Z,-0.51
2023-02-26T01:14:33.021Z,-0.53
2023-02-26T01:17:25.368Z,-0.61
2023-02-26T01:20:02.065Z,-0.67
2023-02-26T01:22:37.320Z,-0.64
2023-02-26T01:25:16.534Z,-0.68
2023-02-26T01:27:44.882Z,-0.69
2023-02-26T01:30:12.696Z,-0.73
2023-02-26T01:33:30.582Z,-0.78
2023-02-26T01:36:09.944Z,-0.86
2023-02-26T01:39:26.200Z,-0.92
2023-02-26T01:42:13.606Z,-1.00
2023-02-26T01:45:01.290Z,-1.13
2023-02-26T01:47:40.446Z,-1.25
2023-02-26T01:50:19.514Z,-1.35
2023-02-26T01:52:49.694Z,-1.42
2023-02-26T01:55:24.937Z,-1.49
2023-02-26T01:57:56.811Z,-1.53
2023-02-26T02:00:24.239Z,-1.58
2023-02-26T02:02:54.216Z,-1.62
2023-02-26T02:05:31.822Z,-1.66
2023-02-26T02:08:00.745Z,-1.72
2023-02-26T02:10:29.102Z,-1.78
2023-02-26T02:13:20.232Z,-1.81
2023-02-26T02:16:27.060Z,-1.85
2023-02-26T02:19:42.120Z,-1.85
2023-02-26T02:22:30.092Z,-1.81
2023-02-26T02:25:50.925Z,-1.77
2023-02-26T02:28:31.423Z,-1.76
2023-02-26T02:31:23.353Z,-1.74
2023-02-26T02:34:06.186Z,-1.68
2023-02-26T02:36:49.171Z,-1.63
2023-02-26T02:39:29.141Z,-1.61
2023-02-26T02:42:22.994Z,-1.57
2023-02-26T02:45:02.626Z,-1.54
2023-02-26T02:47:37.416Z,-1.52
2023-02-26T02:50:24.439Z,-1.49
2023-02-26T02:53:02.217Z,-1.52
2023-02-26T02:55:38.923Z,-1.47
2023-02-26T02:58:22.856Z,-1.47
2023-02-26T03:01:00.471Z,-1.45
2023-02-26T03:03:39.424Z,-1.41
2023-02-26T03:06:07.425Z,-1.43
2023-02-26T03:08:41.428Z,-1.41
2023-02-26T03:11:10.007Z,-1.44
2023-02-26T03:13:41.018Z,-1.46
2023-02-26T03:17:02.901Z,-1.49
2023-02-26T03:19:53.687Z,-1.54
2023-02-26T03:22:47.188Z,-1.58
2023-02-26T03:25:31.045Z,-1.61
2023-02-26T03:28:27.180Z,-1.61
2023-02-26T03:31:07.427Z,-1.62
2023-02-26T03:34:04.893Z,-1.62
2023-02-26T03:36:43.383Z,-1.65
2023-02-26T03:39:33.925Z,-1.70
2023-02-26T03:42:32.344Z,-1.76
2023-02-26T03:45:13.057Z,-1.78
2023-02-26T03:47:46.207Z,-1.83
2023-02-26T03:50:42.342Z,-1.89
2023-02-26T03:53:28.444Z,-1.96
2023-02-26T03:56:22.067Z,-2.01
2023-02-26T03:59:08.914Z,-2.07
2023-02-26T04:02:32.178Z,-2.12
2023-02-26T04:05:16.196Z,-2.19
2023-02-26T04:07:47.159Z,-2.23
2023-02-26T04:10:25.320Z,-2.25
2023-02-26T04:12:52.264Z,-2.27
2023-02-26T04:15:19.754Z,-2.28
2023-02-26T04:17:46.957Z,-2.27
2023-02-26T04:20:14.018Z,-2.30
2023-02-26T04:22:41.322Z,-2.35
2023-02-26T04:25:08.531Z,-2.38
2023-02-26T04:27:36.293Z,-2.41
2023-02-26T04:30:04.523Z,-2.42
2023-02-26T04:32:33.419Z,-2.43
2023-02-26T04:35:00.883Z,-2.44
2023-02-26T04:37:28.900Z,-2.44
2023-02-26T04:39:56.006Z,-2.44
2023-02-26T04:42:23.082Z,-2.45
2023-02-26T04:44:50.136Z,-2.47
2023-02-26T04:47:17.332Z,-2.49
2023-02-26T04:49:44.785Z,-2.47
2023-02-26T04:52:12.065Z,-2.50
2023-02-26T04:54:41.123Z,-2.52
2023-02-26T04:57:09.862Z,-2.53
2023-02-26T04:59:38.868Z,-2.58
2023-02-26T05:02:06.998Z,-2.56
2023-02-26T05:04:38.821Z,-2.54
2023-02-26T05:07:06.056Z,-2.56
2023-02-26T05:09:33.117Z,-2.54
2023-02-26T05:12:00.855Z,-2.50
2023-02-26T05:14:28.001Z,-2.52
2023-02-26T05:16:55.029Z,-2.51
2023-02-26T05:19:22.076Z,-2.53
2023-02-26T05:21:50.271Z,-2.55
2023-02-26T05:24:17.597Z,-2.55
2023-02-26T05:26:44.776Z,-2.55
2023-02-26T05:29:11.973Z,-2.54
2023-02-26T05:31:39.106Z,-2.52
2023-02-26T05:34:06.184Z,-2.51
2023-02-26T05:36:33.198Z,-2.48
2023-02-26T05:39:00.214Z,-2.49
2023-02-26T05:41:27.227Z,-2.47
2023-02-26T05:43:54.136Z,-2.49
2023-02-26T05:46:21.217Z,-2.48
2023-02-26T05:48:48.225Z,-2.52
2023-02-26T05:51:15.219Z,-2.55
2023-02-26T05:53:42.192Z,-2.53
2023-02-26T05:56:09.127Z,-2.55
2023-02-26T05:58:36.324Z,-2.55
2023-02-26T06:01:03.792Z,-2.52
2023-02-26T06:03:30.964Z,-2.48
2023-02-26T06:05:58.062Z,-2.46
2023-02-26T06:08:25.244Z,-2.41
2023-02-26T06:10:52.444Z,-2.40
2023-02-26T06:13:20.049Z,-2.37
2023-02-26T06:15:52.253Z,-2.38
2023-02-26T06:18:19.535Z,-2.36
2023-02-26T06:20:46.670Z,-2.30
2023-02-26T06:23:15.062Z,-2.31
2023-02-26T06:25:42.615Z,-2.28
2023-02-26T06:28:09.760Z,-2.25
2023-02-26T06:30:37.102Z,-2.23
2023-02-26T06:33:04.210Z,-2.19
2023-02-26T06:35:31.376Z,-2.17
2023-02-26T06:37:58.772Z,-2.16
2023-02-26T06:40:25.970Z,-2.10
2023-02-26T06:42:53.393Z,-2.11
2023-02-26T06:45:20.933Z,-2.06
2023-02-26T06:47:48.010Z,-2.00
2023-02-26T06:50:32.437Z,-1.99
2023-02-26T06:52:59.823Z,-1.96
2023-02-26T06:55:27.353Z,-1.97
2023-02-26T06:57:55.560Z,-1.93
2023-02-26T07:00:24.382Z,-1.91
2023-02-26T07:02:52.735Z,-1.87
2023-02-26T07:05:20.653Z,-1.82
2023-02-26T07:07:47.904Z,-1.78
2023-02-26T07:10:15.092Z,-1.77
2023-02-26T07:12:42.334Z,-1.69
2023-02-26T07:15:09.920Z,-1.65
2023-02-26T07:17:37.198Z,-1.62
2023-02-26T07:20:10.122Z,-1.58
2023-02-26T07:22:38.149Z,-1.48
2023-02-26T07:25:07.149Z,-1.40
2023-02-26T07:27:34.770Z,-1.32
2023-02-26T07:30:02.613Z,-1.27
2023-02-26T07:32:29.724Z,-1.19
2023-02-26T07:34:56.757Z,-1.18
2023-02-26T07:37:24.463Z,-1.10
2023-02-26T07:39:52.250Z,-0.99
2023-02-26T07:42:19.200Z,-0.77
2023-02-26T07:44:46.271Z,-0.68
2023-02-26T07:47:13.704Z,-0.66
2023-02-26T07:49:40.968Z,-0.63
2023-02-26T07:52:08.258Z,-0.60
2023-02-26T07:54:36.681Z,-0.55
2023-02-26T07:57:04.728Z,-0.54
2023-02-26T07:59:32.022Z,-0.55
2023-02-26T08:01:59.232Z,-0.51
2023-02-26T08:04:26.320Z,-0.44
2023-02-26T08:06:54.688Z,-0.37
2023-02-26T08:09:22.125Z,-0.27
2023-02-26T08:11:49.424Z,-0.23
2023-02-26T08:14:16.379Z,-0.10
2023-02-26T08:16:43.622Z,-0.04
2023-02-26T08:19:10.857Z,0.04
2023-02-26T08:21:37.821Z,0.12
2023-02-26T08:24:05.405Z,0.13
2023-02-26T08:26:36.823Z,0.20
2023-02-26T08:29:05.708Z,0.31
2023-02-26T08:31:52.629Z,0.43
2023-02-26T08:34:19.760Z,0.54
2023-02-26T08:36:46.776Z,0.65
2023-02-26T08:39:13.853Z,0.77
2023-02-26T08:41:40.825Z,0.85
2023-02-26T08:44:08.391Z,0.86
2023-02-26T08:46:35.425Z,0.96
2023-02-26T08:49:02.508Z,1.02
2023-02-26T08:51:29.468Z,1.12
2023-02-26T08:53:56.738Z,1.15
2023-02-26T08:56:24.635Z,1.21
2023-02-26T08:58:52.278Z,1.26
2023-02-26T09:01:19.274Z,1.32
2023-02-26T09:03:46.229Z,1.40
2023-02-26T09:06:13.335Z,1.46
2023-02-26T09:08:40.226Z,1.52
2023-02-26T09:11:07.270Z,1.57
2023-02-26T09:13:34.238Z,1.67
2023-02-26T09:16:01.350Z,1.72
2023-02-26T09:18:28.364Z,1.81
2023-02-26T09:20:55.862Z,1.88
2023-02-26T09:23:23.013Z,1.89
2023-02-26T09:25:55.110Z,2.06
2023-02-26T09:28:24.285Z,2.06
2023-02-26T09:30:54.400Z,2.08
2023-02-26T09:33:22.992Z,2.10
2023-02-26T09:35:52.381Z,2.19
2023-02-26T09:38:20.692Z,2.26
2023-02-26T09:40:58.816Z,2.30
2023-02-26T09:43:50.084Z,2.38
2023-02-26T09:46:29.660Z,2.51
2023-02-26T09:49:33.080Z,2.64
2023-02-26T09:52:30.668Z,2.67
2023-02-26T09:55:11.997Z,2.60
2023-02-26T09:57:46.553Z,2.61
2023-02-26T10:00:43.769Z,2.55
2023-02-26T10:03:22.888Z,2.54
2023-02-26T10:06:21.425Z,2.62
2023-02-26T10:09:30.962Z,2.73
2023-02-26T10:12:11.954Z,2.86
2023-02-26T10:14:47.824Z,2.84
2023-02-26T10:17:42.086Z,3.00
2023-02-26T10:20:23.957Z,3.09
2023-02-26T10:23:44.991Z,3.19
2023-02-26T10:26:23.828Z,3.21
2023-02-26T10:29:11.458Z,3.28
2023-02-26T10:32:20.136Z,3.40
2023-02-26T10:34:52.709Z,3.45
2023-02-26T10:37:40.775Z,3.61
2023-02-26T10:40:23.994Z,3.47
2023-02-26T10:42:59.342Z,3.39
2023-02-26T10:45:29.287Z,3.41
2023-02-26T10:48:31.727Z,3.55
2023-02-26T10:51:01.486Z,3.55
2023-02-26T10:53:34.668Z,3.63
2023-02-26T10:56:34.738Z,3.53
2023-02-26T10:59:02.034Z,3.54
2023-02-26T11:01:31.799Z,3.57
2023-02-26T11:04:23.481Z,3.71
2023-02-26T11:07:01.113Z,3.54
2023-02-26T11:09:45.667Z,3.50
2023-02-26T11:12:15.250Z,3.45
2023-02-26T11:14:44.798Z,3.63
2023-02-26T11:17:31.324Z,3.68
2023-02-26T11:20:15.088Z,3.80
2023-02-26T11:22:49.407Z,3.79
2023-02-26T11:25:23.338Z,3.65
2023-02-26T11:28:00.101Z,3.41
2023-02-26T11:30:33.010Z,3.35
2023-02-26T11:33:16.529Z,3.25
2023-02-26T11:35:44.207Z,3.35
2023-02-26T11:38:21.594Z,3.50
2023-02-26T11:40:56.378Z,3.64
2023-02-26T11:43:33.748Z,3.80
2023-02-26T11:46:03.402Z,4.00
2023-02-26T11:48:42.724Z,3.98
2023-02-26T11:51:23.262Z,4.11
2023-02-26T11:54:03.538Z,4.15
2023-02-26T11:56:42.748Z,4.16
2023-02-26T11:59:21.857Z,4.25
2023-02-26T12:01:52.104Z,4.23
2023-02-26T12:04:27.817Z,4.41
2023-02-26T12:06:56.557Z,4.44
2023-02-26T12:09:26.238Z,4.37
2023-02-26T12:12:10.397Z,4.44
2023-02-26T12:15:20.939Z,4.40
2023-02-26T12:18:11.314Z,4.45
2023-02-26T12:21:11.517Z,4.53
2023-02-26T12:24:09.223Z,4.58
2023-02-26T12:27:03.563Z,4.57
2023-02-26T12:29:42.939Z,4.63
2023-02-26T12:32:29.098Z,4.64
2023-02-26T12:35:42.863Z,4.70
2023-02-26T12:38:39.065Z,4.65
2023-02-26T12:41:38.765Z,4.70
2023-02-26T12:44:24.058Z,4.78
2023-02-26T12:47:09.289Z,4.84
2023-02-26T12:50:07.234Z,4.93
2023-02-26T12:53:15.486Z,5.03
2023-02-26T12:56:04.786Z,5.20
2023-02-26T12:59:17.903Z,5.24
2023-02-26T13:02:06.411Z,5.32
2023-02-26T13:05:11.294Z,5.41
2023-02-26T13:08:02.730Z,5.54
2023-02-26T13:10:41.705Z,5.53
2023-02-26T13:13:52.002Z,5.60
2023-02-26T13:16:58.323Z,5.51
2023-02-26T13:19:49.168Z,5.71
2023-02-26T13:22:28.796Z,5.65
2023-02-26T13:25:20.085Z,5.75
2023-02-26T13:27:51.471Z,5.79
2023-02-26T13:30:25.498Z,5.77
2023-02-26T13:32:58.077Z,5.85
2023-02-26T13:35:33.693Z,5.84
2023-02-26T13:38:16.610Z,5.75
2023-02-26T13:40:55.059Z,5.72
2023-02-26T13:43:39.669Z,5.72
2023-02-26T13:46:36.505Z,5.73
2023-02-26T13:49:26.870Z,5.70
2023-02-26T13:51:55.091Z,5.71
2023-02-26T13:54:22.017Z,5.81
2023-02-26T13:56:54.837Z,5.89
2023-02-26T13:59:42.059Z,5.96
2023-02-26T14:02:18.196Z,5.91
2023-02-26T14:05:00.198Z,5.90
2023-02-26T14:08:10.048Z,5.90
2023-02-26T14:10:46.689Z,5.97
2023-02-26T14:13:23.886Z,5.89
2023-02-26T14:16:20.893Z,5.85
2023-02-26T14:18:47.853Z,5.90
2023-02-26T14:21:27.110Z,5.93
2023-02-26T14:24:24.536Z,5.94
2023-02-26T14:27:32.563Z,5.97
2023-02-26T14:30:27.714Z,5.96
2023-02-26T14:33:08.434Z,5.94
2023-02-26T14:35:51.581Z,5.93
2023-02-26T14:38:36.132Z,5.95
2023-02-26T14:41:40.034Z,6.02
2023-02-26T14:44:18.124Z,5.99
2023-02-26T14:46:45.854Z,5.96
2023-02-26T14:49:32.930Z,5.93
2023-02-26T14:52:47.803Z,5.97
2023-02-26T14:55:29.622Z,5.90
2023-02-26T14:58:46.975Z,5.79
2023-02-26T15:01:34.743Z,5.74
2023-02-26T15:04:13.611Z,5.73
2023-02-26T15:07:21.108Z,5.87
2023-02-26T15:10:06.366Z,5.90
2023-02-26T15:13:01.183Z,5.96
2023-02-26T15:15:52.485Z,5.95
2023-02-26T15:18:50.382Z,5.98
2023-02-26T15:21:53.067Z,5.89
2023-02-26T15:24:20.462Z,5.87
2023-02-26T15:26:55.378Z,5.86
2023-02-26T15:29:34.082Z,5.90
2023-02-26T15:32:27.893Z,5.85
2023-02-26T15:35:04.712Z,5.84
2023-02-26T15:37:33.708Z,5.90
2023-02-26T15:40:05.547Z,5.82
2023-02-26T15:42:39.091Z,5.74
2023-02-26T15:45:20.492Z,5.72
2023-02-26T15:47:57.581Z,5.69
2023-02-26T15:50:30.324Z,5.64
2023-02-26T15:53:03.118Z,5.55
2023-02-26T15:55:43.212Z,5.50
2023-02-26T15:58:14.772Z,5.44
2023-02-26T16:00:42.435Z,5.41
2023-02-26T16:03:11.124Z,5.38
2023-02-26T16:05:38.805Z,5.33
2023-02-26T16:08:06.336Z,5.29
2023-02-26T16:10:40.477Z,5.22
2023-02-26T16:13:15.798Z,5.22
2023-02-26T16:15:44.540Z,5.19
2023-02-26T16:18:20.987Z,5.15
2023-02-26T16:20:58.021Z,5.04
2023-02-26T16:23:43.881Z,4.97
2023-02-26T16:26:35.981Z,4.88
2023-02-26T16:29:18.349Z,4.82
2023-02-26T16:31:53.938Z,4.74
2023-02-26T16:34:45.154Z,4.64
2023-02-26T16:37:31.804Z,4.54
2023-02-26T16:40:35.014Z,4.51
2023-02-26T16:43:33.451Z,4.47
2023-02-26T16:46:04.531Z,4.44
2023-02-26T16:48:44.569Z,4.39
2023-02-26T16:51:16.481Z,4.30
2023-02-26T16:53:48.527Z,4.20
2023-02-26T16:56:24.250Z,4.10
2023-02-26T16:58:58.206Z,4.00
2023-02-26T17:01:25.729Z,3.98
2023-02-26T17:04:03.918Z,3.92
2023-02-26T17:06:31.383Z,3.84
2023-02-26T17:09:02.196Z,3.78
2023-02-26T17:11:38.986Z,3.70
2023-02-26T17:14:25.624Z,3.65
2023-02-26T17:16:55.921Z,3.59
2023-02-26T17:19:23.099Z,3.50
2023-02-26T17:21:57.018Z,3.44
2023-02-26T17:24:33.945Z,3.36
2023-02-26T17:27:04.438Z,3.30
2023-02-26T17:29:39.759Z,3.25
2023-02-26T17:32:22.898Z,3.19
2023-02-26T17:34:52.190Z,3.11
2023-02-26T17:37:21.011Z,3.07
2023-02-26T17:39:48.384Z,3.01
2023-02-26T17:42:22.124Z,2.95
2023-02-26T17:44:50.958Z,2.89
2023-02-26T17:47:25.846Z,2.85
2023-02-26T17:49:54.198Z,2.78
2023-02-26T17:52:21.293Z,2.70
2023-02-26T17:54:48.674Z,2.63
2023-02-26T17:57:20.279Z,2.56
2023-02-26T17:59:48.908Z,2.52
2023-02-26T18:02:27.115Z,2.44
2023-02-26T18:04:54.816Z,2.41
2023-02-26T18:07:26.545Z,2.35
2023-02-26T18:09:53.650Z,2.30
2023-02-26T18:12:22.506Z,2.27
2023-02-26T18:14:50.587Z,2.22
2023-02-26T18:17:31.133Z,2.17
2023-02-26T18:19:58.398Z,2.16
2023-02-26T18:22:27.636Z,2.15
2023-02-26T18:24:55.490Z,2.13
2023-02-26T18:27:25.998Z,2.12
2023-02-26T18:29:54.031Z,2.09
2023-02-26T18:32:25.093Z,2.10
2023-02-26T18:34:52.774Z,2.10
2023-02-26T18:37:25.022Z,2.11
2023-02-26T18:39:52.831Z,2.15
2023-02-26T18:42:25.287Z,2.19
2023-02-26T18:44:53.850Z,2.21
2023-02-26T18:47:22.665Z,2.24
2023-02-26T18:49:51.459Z,2.31
2023-02-26T18:52:18.863Z,2.33
2023-02-26T18:54:46.081Z,2.32
2023-02-26T18:57:13.186Z,2.35
2023-02-26T18:59:40.241Z,2.34
2023-02-26T19:02:11.814Z,2.30
2023-02-26T19:04:42.044Z,2.30
2023-02-26T19:07:10.046Z,2.26
2023-02-26T19:09:37.215Z,2.24
2023-02-26T19:12:05.789Z,2.18
2023-02-26T19:14:32.842Z,2.15
2023-02-26T19:17:00.364Z,2.09
2023-02-26T19:19:27.629Z,2.08
2023-02-26T19:21:54.804Z,2.00
2023-02-26T19:24:21.787Z,1.97
2023-02-26T19:26:49.114Z,1.92
2023-02-26T19:29:20.063Z,1.93
2023-02-26T19:31:47.285Z,1.88
2023-02-26T19:34:15.344Z,1.82
2023-02-26T19:36:48.058Z,1.81
2023-02-26T19:39:18.455Z,1.79
2023-02-26T19:41:49.087Z,1.74
2023-02-26T19:44:17.392Z,1.69
2023-02-26T19:46:44.472Z,1.66
2023-02-26T19:49:12.158Z,1.62
2023-02-26T19:51:39.734Z,1.59
2023-02-26T19:54:07.618Z,1.57
2023-02-26T19:56:35.798Z,1.53
2023-02-26T19:59:02.813Z,1.53
2023-02-26T20:01:30.284Z,1.51
2023-02-26T20:03:57.500Z,1.45
2023-02-26T20:06:24.855Z,1.44
2023-02-26T20:08:52.848Z,1.40
2023-02-26T20:11:20.061Z,1.36
2023-02-26T20:13:47.244Z,1.31
2023-02-26T20:16:14.450Z,1.28
2023-02-26T20:18:44.178Z,1.21
2023-02-26T20:21:12.911Z,1.17
2023-02-26T20:23:40.870Z,1.14
2023-02-26T20:26:15.591Z,1.13
2023-02-26T20:28:43.208Z,1.06
2023-02-26T20:31:12.037Z,1.05
2023-02-26T20:33:39.503Z,1.01
2023-02-26T20:36:10.817Z,0.95
2023-02-26T20:38:38.348Z,0.90
2023-02-26T20:41:05.813Z,0.83
2023-02-26T20:43:33.397Z,0.80
2023-02-26T20:46:01.981Z,0.76
2023-02-26T20:48:29.264Z,0.74
2023-02-26T20:51:01.995Z,0.70
2023-02-26T20:53:29.931Z,0.68
2023-02-26T20:55:56.878Z,0.70
2023-02-26T20:58:25.437Z,0.70
2023-02-26T21:00:56.442Z,0.69
2023-02-26T21:03:24.432Z,0.65
2023-02-26T21:05:51.700Z,0.59
2023-02-26T21:08:18.763Z,0.64
2023-02-26T21:10:45.836Z,0.64
2023-02-26T21:13:12.821Z,0.59
2023-02-26T21:15:39.714Z,0.58
2023-02-26T21:18:06.703Z,0.53
2023-02-26T21:20:34.123Z,0.52
2023-02-26T21:23:01.233Z,0.48
2023-02-26T21:25:31.239Z,0.42
2023-02-26T21:27:59.339Z,0.38
2023-02-26T21:30:28.640Z,0.31
2023-02-26T21:32:56.113Z,0.21
2023-02-26T21:35:23.334Z,0.11
2023-02-26T21:37:50.357Z,0.03
2023-02-26T21:40:17.564Z,-0.06
2023-02-26T21:42:44.759Z,-0.10
2023-02-26T21:45:12.269Z,-0.17
2023-02-26T21:47:39.344Z,-0.22
2023-02-26T21:50:07.398Z,-0.27
2023-02-26T21:52:34.509Z,-0.29
2023-02-26T21:55:01.602Z,-0.34
2023-02-26T21:57:30.421Z,-0.39
2023-02-26T21:59:57.901Z,-0.47
2023-02-26T22:02:25.184Z,-0.48
2023-02-26T22:04:52.283Z,-0.50
2023-02-26T22:07:19.826Z,-0.52
2023-02-26T22:09:48.793Z,-0.55
2023-02-26T22:12:17.176Z,-0.59
2023-02-26T22:14:44.460Z,-0.62
2023-02-26T22:17:12.115Z,-0.65
2023-02-26T22:19:41.997Z,-0.67
2023-02-26T22:22:09.932Z,-0.67
2023-02-26T22:24:36.957Z,-0.70
2023-02-26T22:27:04.102Z,-0.71
2023-02-26T22:29:31.058Z,-0.73
2023-02-26T22:31:58.219Z,-0.77
2023-02-26T22:34:25.513Z,-0.77
2023-02-26T22:36:52.611Z,-0.76
2023-02-26T22:39:20.339Z,-0.75
2023-02-26T22:41:47.875Z,-0.75
2023-02-26T22:44:15.184Z,-0.75
2023-02-26T22:46:42.721Z,-0.76
2023-02-26T22:49:09.842Z,-0.79
2023-02-26T22:51:36.783Z,-0.82
2023-02-26T22:54:03.965Z,-0.83
2023-02-26T22:56:31.517Z,-0.85
2023-02-26T22:58:58.489Z,-0.87
2023-02-26T23:01:25.850Z,-0.85
2023-02-26T23:03:52.945Z,-0.86
2023-02-26T23:06:19.945Z,-0.89
2023-02-26T23:08:47.163Z,-0.90
2023-02-26T23:11:14.261Z,-0.92
2023-02-26T23:13:41.168Z,-0.92
2023-02-26T23:16:11.232Z,-0.88
2023-02-26T23:18:39.420Z,-0.85
2023-02-26T23:21:08.065Z,-0.86
2023-02-26T23:23:35.218Z,-0.84
2023-02-26T23:26:02.587Z,-0.85
2023-02-26T23:28:30.060Z,-0.81
2023-02-26T23:30:57.059Z,-0.80
2023-02-26T23:33:24.071Z,-0.75
2023-02-26T23:35:51.043Z,-0.74
2023-02-26T23:38:18.154Z,-0.76
2023-02-26T23:40:45.326Z,-0.76
2023-02-26T23:43:12.334Z,-0.79
2023-02-26T23:45:39.614Z,-0.76
2023-02-26T23:48:06.904Z,-0.75
2023-02-26T23:50:33.966Z,-0.74
2023-02-26T23:53:01.047Z,-0.74
2023-02-26T23:55:28.024Z,-0.76
2023-02-26T23:57:55.056Z,-0.78
